createdAt,value
2022-08-12T00:00:01.103Z,1.50
2022-08-12T00:03:21.382Z,1.33
2022-08-12T00:06:41.686Z,1.38
2022-08-12T00:10:01.880Z,1.30
2022-08-12T00:13:21.947Z,1.70
2022-08-12T00:16:41.975Z,1.48
2022-08-12T00:20:02.030Z,1.83
2022-08-12T00:23:22.181Z,1.50
2022-08-12T00:26:42.494Z,1.42
2022-08-12T00:30:02.957Z,1.52
2022-08-12T00:33:23.219Z,1.42
2022-08-12T00:36:50.108Z,1.30
2022-08-12T00:40:10.725Z,1.50
2022-08-12T00:43:15.678Z,1.20
2022-08-12T00:46:32.434Z,1.48
2022-08-12T00:49:34.019Z,1.45
2022-08-12T00:52:35.806Z,1.38
2022-08-12T00:55:37.574Z,1.15
2022-08-12T00:58:39.368Z,1.60
2022-08-12T01:02:02.130Z,1.70
2022-08-12T01:05:48.281Z,1.20
2022-08-12T01:09:08.309Z,1.33
2022-08-12T01:12:09.847Z,1.40
2022-08-12T01:15:12.381Z,1.83
2022-08-12T01:18:14.372Z,1.20
2022-08-12T01:21:28.100Z,1.42
2022-08-12T01:24:59.653Z,1.27
2022-08-12T01:28:01.855Z,1.50
2022-08-12T01:34:28.697Z,1.50
2022-08-12T01:37:36.754Z,1.17
2022-08-12T01:40:40.454Z,1.40
2022-08-12T01:43:44.489Z,1.42
2022-08-12T01:47:04.265Z,1.70
2022-08-12T01:50:17.821Z,1.30
2022-08-12T01:53:20.925Z,1.77
2022-08-12T01:56:22.733Z,3.35
2022-08-12T01:59:50.295Z,1.30
2022-08-12T02:03:01.961Z,1.30
2022-08-12T02:06:26.925Z,1.27
2022-08-12T02:10:50.903Z,1.40
2022-08-12T02:13:52.169Z,1.30
2022-08-12T02:17:12.564Z,1.30
2022-08-12T02:20:52.798Z,1.30
2022-08-12T02:23:54.844Z,1.50
2022-08-12T02:26:56.331Z,1.33
2022-08-12T02:29:58.284Z,1.48
2022-08-12T02:33:00.933Z,1.55
2022-08-12T02:36:02.660Z,1.48
2022-08-12T02:39:04.364Z,1.30
2022-08-12T02:42:06.954Z,1.48
2022-08-12T02:45:09.087Z,1.50
2022-08-12T02:48:10.923Z,1.60
2022-08-12T02:51:13.716Z,1.20
2022-08-12T02:54:15.394Z,1.70
2022-08-12T02:57:18.033Z,1.80
2022-08-12T03:00:19.525Z,1.35
2022-08-12T03:03:21.014Z,1.42
2022-08-12T03:06:22.825Z,1.50
2022-08-12T03:09:24.319Z,1.50
2022-08-12T03:12:32.737Z,2.45
2022-08-12T03:15:35.837Z,1.38
2022-08-12T03:18:37.334Z,1.70
2022-08-12T03:21:55.714Z,1.60
2022-08-12T03:25:04.800Z,1.65
2022-08-12T03:28:23.574Z,1.92
2022-08-12T03:31:31.760Z,1.90
2022-08-12T03:34:35.351Z,1.98
2022-08-12T03:37:36.863Z,1.55
2022-08-12T03:41:09.003Z,1.40
2022-08-12T03:44:57.176Z,1.60
2022-08-12T03:48:23.875Z,1.63
2022-08-12T03:51:44.436Z,1.60
2022-08-12T03:55:04.485Z,1.83
2022-08-12T03:58:25.026Z,1.48
2022-08-12T04:01:26.890Z,1.90
2022-08-12T04:04:34.155Z,2.38
2022-08-12T04:07:35.908Z,1.80
2022-08-12T04:10:56.007Z,2.00
2022-08-12T04:14:09.093Z,1.88
2022-08-12T04:17:14.359Z,1.60
2022-08-12T04:20:19.350Z,2.05
2022-08-12T04:23:21.871Z,1.60
2022-08-12T04:26:23.365Z,2.17
2022-08-12T04:30:30.377Z,3.42
2022-08-12T04:32:49.759Z,2.45
2022-08-12T04:35:51.740Z,2.92
2022-08-12T04:38:56.490Z,2.38
2022-08-12T04:42:01.065Z,2.35
2022-08-12T04:45:02.557Z,1.83
2022-08-12T04:48:04.503Z,1.97
2022-08-12T04:51:06.028Z,1.90
2022-08-12T04:54:07.527Z,1.70
2022-08-12T04:57:09.581Z,2.53
2022-08-12T05:00:12.460Z,2.08
2022-08-12T05:03:14.149Z,1.88
2022-08-12T05:06:18.929Z,1.65
2022-08-12T05:09:58.855Z,1.88
2022-08-12T05:12:56.156Z,1.92
2022-08-12T05:16:05.490Z,1.88
2022-08-12T05:19:18.721Z,1.77
2022-08-12T05:22:24.668Z,2.08
2022-08-12T05:25:26.433Z,1.80
2022-08-12T05:28:29.019Z,1.40
2022-08-12T05:31:47.683Z,1.70
2022-08-12T05:34:50.283Z,1.80
2022-08-12T05:38:11.772Z,1.77
2022-08-12T05:41:20.246Z,1.65
2022-08-12T05:44:21.791Z,1.85
2022-08-12T05:47:23.360Z,1.80
2022-08-12T05:50:42.795Z,2.15
2022-08-12T05:53:44.699Z,3.60
2022-08-12T05:56:46.162Z,3.65
2022-08-12T05:59:47.969Z,3.50
2022-08-12T06:02:49.494Z,3.42
2022-08-12T06:05:55.738Z,3.67
2022-08-12T06:08:57.465Z,8.30
2022-08-12T06:12:05.712Z,6.07
2022-08-12T06:15:08.211Z,4.95
2022-08-12T06:18:11.576Z,4.40
2022-08-12T06:21:19.151Z,2.40
2022-08-12T06:24:24.230Z,2.63
2022-08-12T06:27:25.724Z,2.13
2022-08-12T06:30:36.792Z,2.42
2022-08-12T06:33:57.889Z,2.33
2022-08-12T06:37:07.301Z,5.47
2022-08-12T06:40:10.208Z,1.88
2022-08-12T06:43:13.158Z,2.58
2022-08-12T06:46:14.680Z,1.80
2022-08-12T06:49:16.229Z,2.08
2022-08-12T06:52:24.220Z,2.78
2022-08-12T06:55:26.077Z,1.40
2022-08-12T06:58:28.265Z,2.15
2022-08-12T07:01:31.316Z,1.90
2022-08-12T07:04:37.767Z,2.33
2022-08-12T07:07:40.123Z,2.17
2022-08-12T07:10:45.704Z,1.85
2022-08-12T07:14:11.283Z,1.67
2022-08-12T07:17:12.920Z,1.67
2022-08-12T07:20:35.686Z,2.13
2022-08-12T07:23:37.631Z,1.88
2022-08-12T07:26:41.225Z,1.90
2022-08-12T07:30:00.012Z,1.95
2022-08-12T07:33:08.628Z,1.50
2022-08-12T07:36:13.922Z,1.45
2022-08-12T07:39:15.580Z,2.08
2022-08-12T07:42:17.130Z,1.90
2022-08-12T07:45:20.309Z,1.30
2022-08-12T07:48:22.702Z,1.60
2022-08-12T07:51:25.139Z,1.38
2022-08-12T07:54:27.188Z,1.75
2022-08-12T07:57:28.680Z,1.55
2022-08-12T08:00:32.378Z,1.40
2022-08-12T08:03:34.505Z,1.42
2022-08-12T08:06:48.081Z,1.20
2022-08-12T08:09:49.852Z,1.40
2022-08-12T08:13:05.015Z,1.50
2022-08-12T08:16:07.515Z,1.45
2022-08-12T08:19:13.007Z,1.23
2022-08-12T08:22:14.541Z,2.15
2022-08-12T08:25:34.643Z,1.17
2022-08-12T08:28:38.511Z,1.50
2022-08-12T08:31:45.456Z,1.55
2022-08-12T08:34:53.698Z,1.30
2022-08-12T08:38:17.649Z,1.33
2022-08-12T08:42:19.027Z,1.25
2022-08-12T08:45:14.671Z,1.48
2022-08-12T08:48:16.963Z,1.40
2022-08-12T08:51:18.453Z,1.50
2022-08-12T08:54:19.968Z,1.63
2022-08-12T08:57:21.661Z,1.30
2022-08-12T09:00:23.194Z,1.30
2022-08-12T09:05:07.583Z,1.20
2022-08-12T09:10:03.713Z,1.77
2022-08-12T09:16:50.230Z,1.48
2022-08-12T09:24:00.076Z,1.23
2022-08-12T09:26:38.313Z,1.15
2022-08-12T09:30:09.630Z,1.50
2022-08-12T09:40:06.529Z,1.30
2022-08-12T09:43:24.989Z,1.27
2022-08-12T09:46:27.002Z,1.10
2022-08-12T09:49:28.528Z,1.83
2022-08-12T09:52:32.061Z,1.45
2022-08-12T09:56:03.818Z,1.60
2022-08-12T09:59:09.829Z,1.23
2022-08-12T10:02:45.848Z,1.17
2022-08-12T10:06:26.394Z,1.40
2022-08-12T10:08:57.898Z,1.35
2022-08-12T10:12:31.421Z,1.30
2022-08-12T10:16:02.869Z,1.13
2022-08-12T10:18:59.798Z,1.50
2022-08-12T10:22:01.578Z,1.20
2022-08-12T10:25:21.747Z,1.63
2022-08-12T10:28:41.776Z,1.33
2022-08-12T10:32:21.755Z,1.30
2022-08-12T10:35:37.862Z,1.10
2022-08-12T10:38:41.380Z,0.90
2022-08-12T10:42:04.422Z,1.20
2022-08-12T10:45:07.666Z,1.13
2022-08-12T10:48:21.379Z,1.20
2022-08-12T10:52:03.496Z,1.05
2022-08-12T10:54:52.002Z,1.27
2022-08-12T10:58:14.453Z,1.10
2022-08-12T11:01:25.955Z,1.40
2022-08-12T11:04:48.842Z,1.38
2022-08-12T11:08:38.646Z,1.13
2022-08-12T11:11:27.728Z,1.17
2022-08-12T11:14:49.211Z,1.20
2022-08-12T11:17:54.953Z,1.55
2022-08-12T11:20:57.796Z,1.17
2022-08-12T11:23:59.674Z,1.30
2022-08-12T11:27:07.587Z,1.35
2022-08-12T11:30:31.515Z,1.40
2022-08-12T11:34:06.679Z,1.30
2022-08-12T11:37:04.963Z,1.13
2022-08-12T11:43:19.702Z,1.50
2022-08-12T11:46:21.869Z,1.15
2022-08-12T11:49:32.323Z,1.58
2022-08-12T11:52:54.935Z,1.20
2022-08-12T11:55:55.877Z,1.30
2022-08-12T12:02:20.272Z,1.23
2022-08-12T12:05:22.377Z,1.27
2022-08-12T12:08:43.305Z,1.23
2022-08-12T12:11:49.606Z,1.25
2022-08-12T12:14:54.837Z,1.17
2022-08-12T12:17:57.109Z,1.20
2022-08-12T12:21:00.090Z,1.15
2022-08-12T12:24:02.576Z,1.10
2022-08-12T12:27:04.279Z,1.60
2022-08-12T12:30:17.820Z,1.15
2022-08-12T12:36:48.962Z,1.45
2022-08-12T12:39:58.166Z,1.20
2022-08-12T12:43:00.473Z,1.38
2022-08-12T12:46:05.060Z,1.00
2022-08-12T12:49:10.965Z,1.10
2022-08-12T12:52:19.601Z,1.10
2022-08-12T12:55:23.171Z,1.10
2022-08-12T12:58:24.990Z,1.10
2022-08-12T13:01:30.880Z,1.10
2022-08-12T13:04:35.077Z,1.20
2022-08-12T13:07:48.945Z,1.17
2022-08-12T13:11:00.682Z,1.10
2022-08-12T13:14:09.648Z,1.25
2022-08-12T13:17:16.644Z,1.27
2022-08-12T13:20:38.058Z,1.48
2022-08-12T13:23:44.806Z,1.15
2022-08-12T13:26:46.405Z,1.20
2022-08-12T13:29:48.995Z,1.10
2022-08-12T13:32:57.717Z,1.05
2022-08-12T13:36:06.080Z,1.23
2022-08-12T13:39:11.762Z,1.30
2022-08-12T13:42:14.633Z,1.30
2022-08-12T13:45:16.436Z,1.20
2022-08-12T13:48:19.929Z,1.40
2022-08-12T13:51:24.348Z,1.40
2022-08-12T13:54:26.218Z,1.30
2022-08-12T13:57:44.504Z,1.00
2022-08-12T14:00:53.458Z,1.20
2022-08-12T14:03:55.050Z,1.10
2022-08-12T14:06:58.243Z,1.58
2022-08-12T14:10:31.335Z,1.20
2022-08-12T14:14:04.888Z,1.30
2022-08-12T14:16:56.277Z,1.30
2022-08-12T14:20:16.105Z,1.25
2022-08-12T14:24:05.511Z,1.08
2022-08-12T14:26:41.534Z,1.55
2022-08-12T14:30:05.739Z,1.30
2022-08-12T14:33:09.182Z,1.10
2022-08-12T14:36:12.957Z,1.55
2022-08-12T14:39:17.442Z,2.05
2022-08-12T14:42:19.793Z,1.20
2022-08-12T14:45:23.038Z,1.27
2022-08-12T14:48:24.720Z,1.08
2022-08-12T14:52:42.744Z,1.27
2022-08-12T14:58:10.689Z,1.17
2022-08-12T15:01:30.982Z,1.10
2022-08-12T15:04:32.552Z,1.20
2022-08-12T15:07:51.166Z,1.20
2022-08-12T15:10:54.188Z,1.00
2022-08-12T15:13:55.847Z,1.30
2022-08-12T15:17:00.785Z,1.50
2022-08-12T15:20:31.328Z,1.00
2022-08-12T15:23:29.100Z,0.90
2022-08-12T15:26:40.773Z,1.10
2022-08-12T15:29:42.534Z,1.15
2022-08-12T15:32:48.626Z,1.10
2022-08-12T15:35:53.712Z,1.17
2022-08-12T15:38:55.886Z,1.23
2022-08-12T15:42:00.566Z,1.10
2022-08-12T15:45:04.143Z,1.30
2022-08-12T15:48:16.651Z,0.95
2022-08-12T15:51:58.324Z,1.20
2022-08-12T15:54:51.571Z,1.10
2022-08-12T15:57:54.142Z,1.23
2022-08-12T16:00:56.407Z,1.10
2022-08-12T16:04:00.409Z,1.25
2022-08-12T16:07:09.255Z,1.15
2022-08-12T16:10:11.722Z,1.08
2022-08-12T16:13:18.210Z,1.50
2022-08-12T16:16:30.281Z,1.17
2022-08-12T16:20:03.519Z,1.20
2022-08-12T16:23:04.151Z,1.88
2022-08-12T16:26:15.282Z,1.40
2022-08-12T16:29:19.288Z,1.25
2022-08-12T16:32:31.160Z,1.10
2022-08-12T16:35:33.659Z,1.05
2022-08-12T16:38:37.269Z,1.30
2022-08-12T16:41:40.783Z,1.10
2022-08-12T16:44:49.466Z,1.00
2022-08-12T16:47:58.406Z,1.17
2022-08-12T16:51:10.576Z,1.45
2022-08-12T16:54:16.122Z,1.10
2022-08-12T16:57:19.216Z,1.48
2022-08-12T17:00:36.227Z,1.40
2022-08-12T17:03:44.757Z,1.20
2022-08-12T17:06:53.907Z,1.40
2022-08-12T17:09:55.448Z,1.00
2022-08-12T17:12:57.112Z,0.88
2022-08-12T17:16:06.194Z,1.10
2022-08-12T17:19:13.892Z,1.02
2022-08-12T17:22:16.783Z,1.10
2022-08-12T17:25:23.148Z,1.00
2022-08-12T17:28:24.624Z,1.20
2022-08-12T17:31:59.821Z,1.20
2022-08-12T17:35:08.055Z,1.33
2022-08-12T17:38:11.916Z,1.27
2022-08-12T17:41:22.722Z,1.30
2022-08-12T17:47:35.526Z,1.27
2022-08-12T17:50:45.201Z,1.25
2022-08-12T17:54:11.186Z,1.52
2022-08-12T17:57:16.298Z,1.10
2022-08-12T18:00:18.227Z,1.52
2022-08-12T18:04:04.969Z,1.00
2022-08-12T18:06:41.474Z,1.10
2022-08-12T18:09:52.864Z,1.48
2022-08-12T18:12:54.824Z,1.20
2022-08-12T18:16:05.887Z,1.25
2022-08-12T18:19:08.774Z,1.20
2022-08-12T18:22:10.453Z,1.13
2022-08-12T18:26:12.752Z,0.95
2022-08-12T18:28:42.948Z,1.02
2022-08-12T18:32:00.084Z,1.10
2022-08-12T18:35:10.683Z,1.00
2022-08-12T18:38:13.788Z,1.20
2022-08-12T18:41:34.369Z,0.98
2022-08-12T18:44:36.107Z,1.15
2022-08-12T18:47:49.906Z,1.15
2022-08-12T18:51:02.636Z,1.20
2022-08-12T18:54:08.607Z,1.20
2022-08-12T18:57:19.377Z,1.83
2022-08-12T19:00:33.169Z,1.10
2022-08-12T19:03:39.688Z,0.90
2022-08-12T19:06:41.756Z,1.30
2022-08-12T19:09:59.219Z,1.35
2022-08-12T19:13:20.977Z,1.35
2022-08-12T19:16:25.090Z,1.40
2022-08-12T19:22:39.232Z,0.95
2022-08-12T19:25:59.336Z,1.17
2022-08-12T19:29:04.975Z,1.67
2022-08-12T19:32:09.581Z,1.25
2022-08-12T19:38:33.208Z,1.30
2022-08-12T19:45:04.529Z,1.10
2022-08-12T19:48:16.427Z,1.38
2022-08-12T19:51:38.316Z,1.08
2022-08-12T19:54:43.956Z,1.50
2022-08-12T19:58:03.065Z,1.50
2022-08-12T20:01:11.171Z,1.40
2022-08-12T20:04:13.270Z,1.50
2022-08-12T20:07:23.205Z,1.20
2022-08-12T20:10:35.111Z,1.38
2022-08-12T20:13:38.075Z,1.30
2022-08-12T20:17:02.074Z,1.25
2022-08-12T20:20:19.397Z,1.05
2022-08-12T20:23:23.318Z,2.15
2022-08-12T20:26:24.980Z,1.70
2022-08-12T20:29:35.586Z,1.38
2022-08-12T20:32:53.607Z,1.73
2022-08-12T20:36:13.529Z,1.50
2022-08-12T20:39:35.947Z,1.60
2022-08-12T20:42:38.537Z,1.30
2022-08-12T20:45:50.729Z,1.33
2022-08-12T20:48:59.540Z,1.17
2022-08-12T20:52:01.879Z,1.10
2022-08-12T20:55:15.308Z,1.10
2022-08-12T20:58:20.850Z,1.25
2022-08-12T21:04:49.372Z,1.65
2022-08-12T21:07:52.721Z,1.50
2022-08-12T21:10:58.990Z,1.40
2022-08-12T21:14:01.180Z,1.75
2022-08-12T21:17:04.745Z,1.55
2022-08-12T21:20:11.417Z,1.80
2022-08-12T21:23:19.112Z,2.50
2022-08-12T21:26:21.431Z,1.67
2022-08-12T21:29:23.030Z,1.30
2022-08-12T21:32:46.966Z,1.75
2022-08-12T21:35:50.448Z,1.58
2022-08-12T21:38:57.511Z,1.50
2022-08-12T21:42:00.378Z,1.88
2022-08-12T21:45:46.954Z,1.15
2022-08-12T21:48:26.056Z,0.93
2022-08-12T21:51:49.467Z,1.33
2022-08-12T21:54:49.142Z,0.90
2022-08-12T21:58:02.502Z,1.05
2022-08-12T22:01:10.440Z,1.20
2022-08-12T22:04:42.600Z,1.20
2022-08-12T22:07:55.267Z,1.00
2022-08-12T22:10:59.801Z,0.73
2022-08-12T22:14:08.391Z,1.38
2022-08-12T22:17:10.953Z,0.90
2022-08-12T22:20:13.934Z,0.70
2022-08-12T22:23:21.863Z,0.70
2022-08-12T22:26:37.496Z,0.90
2022-08-12T22:29:57.819Z,1.20
2022-08-12T22:33:05.255Z,1.08
2022-08-12T22:36:20.876Z,1.20
2022-08-12T22:39:26.351Z,1.10
2022-08-12T22:42:46.789Z,1.20
2022-08-12T22:46:11.665Z,0.82
2022-08-12T22:49:13.136Z,1.00
2022-08-12T22:52:23.034Z,1.00
2022-08-12T22:55:59.034Z,1.10
2022-08-12T22:58:47.443Z,1.00
2022-08-12T23:02:01.846Z,1.23
2022-08-12T23:05:03.909Z,1.20
2022-08-12T23:08:13.845Z,1.00
2022-08-12T23:11:23.677Z,0.75
2022-08-12T23:14:27.400Z,1.10
2022-08-12T23:17:40.206Z,0.90
2022-08-12T23:20:42.852Z,1.10
2022-08-12T23:24:09.596Z,1.05
2022-08-12T23:27:50.183Z,0.85
2022-08-12T23:30:48.939Z,0.90
2022-08-12T23:37:01.962Z,1.00
2022-08-12T23:40:14.247Z,0.90
2022-08-12T23:43:17.705Z,0.80
2022-08-12T23:46:22.486Z,0.77
2022-08-12T23:49:58.045Z,0.73
2022-08-12T23:52:51.061Z,0.70
2022-08-12T23:55:54.761Z,0.85
2022-08-12T23:58:58.690Z,0.77
